N236VA NSFA-NGFU
Flight info
| Callsign | N236VA |
|---|---|
| Flight time | N/A |
| Altitude | FL300 |
| Route | |
| Aircraft | E55P/M-G/N |
Departure
| Time | N/A |
|---|---|
| Airport | Faleolo International Airport (NSFA) |
Arrival
| Time | 2026-04-19 15:23 |
|---|---|
| Airport | Funafuti International Airport (NGFU) |
| Time | Latitude | Longitude | Altitude | Speed | Heading |
|---|---|---|---|---|---|
| 2026-04-19 14:15 | -11.99706 | -175.12741 | 29935 ft | 446 kts | 300° |
| 2026-04-19 14:16 | -11.98085 | -175.15461 | 29942 ft | 447 kts | 300° |
| 2026-04-19 14:16 | -11.94851 | -175.20891 | 29939 ft | 449 kts | 300° |
| 2026-04-19 14:17 | -11.91630 | -175.26298 | 29936 ft | 446 kts | 300° |
| 2026-04-19 14:17 | -11.88397 | -175.31716 | 29947 ft | 449 kts | 300° |
| 2026-04-19 14:18 | -11.85138 | -175.37176 | 29940 ft | 448 kts | 300° |
| 2026-04-19 14:18 | -11.81908 | -175.42584 | 29940 ft | 446 kts | 300° |
| 2026-04-19 14:19 | -11.78672 | -175.47998 | 29939 ft | 449 kts | 300° |
| 2026-04-19 14:19 | -11.75422 | -175.53438 | 29941 ft | 448 kts | 300° |
| 2026-04-19 14:20 | -11.72190 | -175.58838 | 29935 ft | 447 kts | 300° |
| 2026-04-19 14:20 | -11.68955 | -175.64245 | 29938 ft | 448 kts | 300° |
| 2026-04-19 14:21 | -11.65701 | -175.69679 | 29948 ft | 449 kts | 300° |
| 2026-04-19 14:21 | -11.62437 | -175.75130 | 29943 ft | 447 kts | 300° |
| 2026-04-19 14:22 | -11.59198 | -175.80533 | 29944 ft | 448 kts | 300° |
| 2026-04-19 14:22 | -11.55951 | -175.85943 | 29941 ft | 448 kts | 300° |
| 2026-04-19 14:23 | -11.52710 | -175.91346 | 29940 ft | 448 kts | 300° |
| 2026-04-19 14:23 | -11.49451 | -175.96774 | 29943 ft | 449 kts | 300° |
| 2026-04-19 14:24 | -11.46199 | -176.02186 | 29936 ft | 449 kts | 300° |
| 2026-04-19 14:24 | -11.42945 | -176.07603 | 29937 ft | 450 kts | 300° |
| 2026-04-19 14:25 | -11.39676 | -176.13037 | 29936 ft | 449 kts | 300° |
| 2026-04-19 14:25 | -11.36423 | -176.18447 | 29931 ft | 449 kts | 300° |
| 2026-04-19 14:26 | -11.33156 | -176.23873 | 29923 ft | 451 kts | 300° |
| 2026-04-19 14:26 | -11.29890 | -176.29293 | 29918 ft | 449 kts | 300° |
| 2026-04-19 14:27 | -11.26619 | -176.34719 | 29921 ft | 450 kts | 300° |
| 2026-04-19 14:27 | -11.23347 | -176.40144 | 29923 ft | 450 kts | 300° |
| 2026-04-19 14:28 | -11.20080 | -176.45561 | 29922 ft | 450 kts | 300° |
| 2026-04-19 14:28 | -11.16795 | -176.51005 | 29918 ft | 451 kts | 300° |
| 2026-04-19 14:29 | -11.13512 | -176.56438 | 29922 ft | 452 kts | 300° |
| 2026-04-19 14:29 | -11.10222 | -176.61887 | 29921 ft | 453 kts | 300° |
| 2026-04-19 14:30 | -11.06925 | -176.67338 | 29921 ft | 453 kts | 301° |
| 2026-04-19 14:30 | -11.03617 | -176.72808 | 29919 ft | 454 kts | 301° |
| 2026-04-19 14:31 | -11.00310 | -176.78272 | 29922 ft | 454 kts | 301° |
| 2026-04-19 14:31 | -10.97018 | -176.83709 | 29920 ft | 452 kts | 301° |
| 2026-04-19 14:32 | -10.93698 | -176.89187 | 29919 ft | 455 kts | 301° |
| 2026-04-19 14:32 | -10.90380 | -176.94660 | 29919 ft | 456 kts | 301° |
| 2026-04-19 14:33 | -10.87062 | -177.00133 | 29917 ft | 456 kts | 301° |
| 2026-04-19 14:33 | -10.83730 | -177.05627 | 29918 ft | 458 kts | 301° |
| 2026-04-19 14:34 | -10.80391 | -177.11126 | 29919 ft | 455 kts | 301° |
| 2026-04-19 14:34 | -10.77082 | -177.16574 | 29930 ft | 454 kts | 301° |
| 2026-04-19 14:35 | -10.72109 | -177.24753 | 29938 ft | 454 kts | 301° |
| 2026-04-19 14:35 | -10.68785 | -177.30219 | 29939 ft | 455 kts | 301° |
| 2026-04-19 14:36 | -10.65452 | -177.35697 | 29941 ft | 458 kts | 301° |
| 2026-04-19 14:36 | -10.62115 | -177.41181 | 29936 ft | 456 kts | 301° |
| 2026-04-19 14:37 | -10.58775 | -177.46661 | 29935 ft | 455 kts | 301° |
| 2026-04-19 14:37 | -10.55650 | -177.52238 | 29936 ft | 455 kts | 298° |
| 2026-04-19 14:38 | -10.52589 | -177.57846 | 29933 ft | 454 kts | 298° |
| 2026-04-19 14:38 | -10.49537 | -177.63439 | 29928 ft | 455 kts | 298° |
| 2026-04-19 14:39 | -10.46460 | -177.69072 | 29928 ft | 455 kts | 298° |
| 2026-04-19 14:39 | -10.43399 | -177.74673 | 29931 ft | 455 kts | 298° |
| 2026-04-19 14:40 | -10.40328 | -177.80291 | 29927 ft | 457 kts | 298° |
| 2026-04-19 14:40 | -10.37239 | -177.85940 | 29925 ft | 455 kts | 298° |
| 2026-04-19 14:41 | -10.34179 | -177.91533 | 29923 ft | 454 kts | 298° |
| 2026-04-19 14:41 | -10.31110 | -177.97140 | 29921 ft | 457 kts | 298° |
| 2026-04-19 14:42 | -10.28027 | -178.02766 | 29919 ft | 456 kts | 298° |
| 2026-04-19 14:42 | -10.24942 | -178.08392 | 29919 ft | 456 kts | 298° |
| 2026-04-19 14:43 | -10.21855 | -178.14022 | 29920 ft | 458 kts | 298° |
| 2026-04-19 14:43 | -10.18771 | -178.19645 | 29920 ft | 456 kts | 298° |
| 2026-04-19 14:44 | -10.15682 | -178.25273 | 29919 ft | 457 kts | 298° |
| 2026-04-19 14:44 | -10.12590 | -178.30901 | 29920 ft | 458 kts | 298° |
| 2026-04-19 14:45 | -10.09498 | -178.36529 | 29920 ft | 458 kts | 298° |
| 2026-04-19 14:45 | -10.06410 | -178.42151 | 29918 ft | 457 kts | 298° |
| 2026-04-19 14:46 | -10.03305 | -178.47791 | 29919 ft | 458 kts | 298° |
| 2026-04-19 14:46 | -10.00214 | -178.53409 | 29919 ft | 457 kts | 298° |
| 2026-04-19 14:47 | -9.97121 | -178.59026 | 29920 ft | 457 kts | 298° |
| 2026-04-19 14:47 | -9.94016 | -178.64664 | 29920 ft | 459 kts | 298° |
| 2026-04-19 14:48 | -9.90910 | -178.70304 | 29920 ft | 459 kts | 298° |
| 2026-04-19 14:48 | -9.87811 | -178.75921 | 29917 ft | 457 kts | 298° |
| 2026-04-19 14:49 | -9.84713 | -178.81537 | 29917 ft | 458 kts | 298° |
| 2026-04-19 14:49 | -9.81600 | -178.87178 | 29918 ft | 457 kts | 298° |
| 2026-04-19 14:50 | -9.78503 | -178.92784 | 29916 ft | 457 kts | 298° |
| 2026-04-19 14:50 | -9.75401 | -178.98398 | 29918 ft | 459 kts | 298° |
| 2026-04-19 14:51 | -9.72277 | -179.04050 | 29917 ft | 459 kts | 298° |
| 2026-04-19 14:51 | -9.69169 | -179.09673 | 29916 ft | 458 kts | 298° |
| 2026-04-19 14:52 | -9.66123 | -179.15181 | 29821 ft | 432 kts | 298° |
| 2026-04-19 14:52 | -9.64668 | -179.17806 | 29322 ft | 424 kts | 298° |
| 2026-04-19 14:52 | -9.63244 | -179.20381 | 28856 ft | 416 kts | 298° |
| 2026-04-19 14:53 | -9.61836 | -179.22922 | 28393 ft | 409 kts | 298° |
| 2026-04-19 14:53 | -9.60463 | -179.25404 | 27938 ft | 402 kts | 298° |
| 2026-04-19 14:53 | -9.59109 | -179.27846 | 27482 ft | 396 kts | 298° |
| 2026-04-19 14:53 | -9.57775 | -179.30252 | 27029 ft | 390 kts | 298° |
| 2026-04-19 14:54 | -9.56461 | -179.32626 | 26578 ft | 386 kts | 298° |
| 2026-04-19 14:54 | -9.55160 | -179.34972 | 26127 ft | 381 kts | 298° |
| 2026-04-19 14:54 | -9.53874 | -179.37295 | 25678 ft | 377 kts | 298° |
| 2026-04-19 14:54 | -9.52590 | -179.39608 | 25225 ft | 373 kts | 298° |
| 2026-04-19 14:55 | -9.51331 | -179.41880 | 24780 ft | 370 kts | 298° |
| 2026-04-19 14:55 | -9.50083 | -179.44130 | 24334 ft | 367 kts | 298° |
| 2026-04-19 14:55 | -9.48844 | -179.46366 | 23892 ft | 363 kts | 298° |
| 2026-04-19 14:55 | -9.47615 | -179.48579 | 23448 ft | 361 kts | 299° |
| 2026-04-19 14:56 | -9.46394 | -179.50780 | 23006 ft | 358 kts | 299° |
| 2026-04-19 14:56 | -9.45181 | -179.52963 | 22569 ft | 356 kts | 299° |
| 2026-04-19 14:56 | -9.43970 | -179.55145 | 22136 ft | 353 kts | 299° |
| 2026-04-19 14:56 | -9.42774 | -179.57299 | 21721 ft | 351 kts | 299° |
| 2026-04-19 14:57 | -9.41586 | -179.59437 | 21303 ft | 348 kts | 299° |
| 2026-04-19 14:57 | -9.40407 | -179.61561 | 20887 ft | 346 kts | 299° |
| 2026-04-19 14:57 | -9.39235 | -179.63670 | 20468 ft | 344 kts | 299° |
| 2026-04-19 14:57 | -9.38071 | -179.65765 | 20048 ft | 342 kts | 300° |
| 2026-04-19 14:58 | -9.36911 | -179.67850 | 19631 ft | 340 kts | 300° |
| 2026-04-19 14:58 | -9.35755 | -179.69934 | 19208 ft | 338 kts | 300° |
| 2026-04-19 14:58 | -9.34610 | -179.71994 | 18786 ft | 336 kts | 300° |
| 2026-04-19 14:58 | -9.33471 | -179.74039 | 18365 ft | 334 kts | 300° |
| 2026-04-19 14:59 | -9.32339 | -179.76075 | 17944 ft | 332 kts | 300° |
| 2026-04-19 14:59 | -9.31212 | -179.78101 | 17522 ft | 330 kts | 300° |
| 2026-04-19 14:59 | -9.30091 | -179.80116 | 17100 ft | 329 kts | 300° |
| 2026-04-19 14:59 | -9.28978 | -179.82117 | 16679 ft | 327 kts | 300° |
| 2026-04-19 15:00 | -9.27862 | -179.84124 | 16256 ft | 325 kts | 300° |
| 2026-04-19 15:00 | -9.26759 | -179.86102 | 15833 ft | 323 kts | 300° |
| 2026-04-19 15:00 | -9.25665 | -179.88071 | 15410 ft | 321 kts | 301° |
| 2026-04-19 15:00 | -9.24573 | -179.90030 | 14987 ft | 319 kts | 301° |
| 2026-04-19 15:01 | -9.23489 | -179.91974 | 14563 ft | 317 kts | 301° |
| 2026-04-19 15:01 | -9.22412 | -179.93905 | 14142 ft | 315 kts | 301° |
| 2026-04-19 15:01 | -9.21337 | -179.95839 | 13717 ft | 314 kts | 301° |
| 2026-04-19 15:01 | -9.20266 | -179.97760 | 13292 ft | 312 kts | 301° |
| 2026-04-19 15:02 | -9.19209 | -179.99656 | 12870 ft | 310 kts | 301° |
| 2026-04-19 15:02 | -9.18159 | 179.98456 | 12437 ft | 308 kts | 301° |
| 2026-04-19 15:02 | -9.17219 | 179.96772 | 12226 ft | 300 kts | 301° |
| 2026-04-19 15:02 | -9.16118 | 179.94794 | 12000 ft | 291 kts | 301° |
| 2026-04-19 15:03 | -9.15138 | 179.93039 | 11799 ft | 283 kts | 301° |
| 2026-04-19 15:03 | -9.14190 | 179.91337 | 11671 ft | 274 kts | 301° |
| 2026-04-19 15:03 | -9.13260 | 179.89671 | 11541 ft | 267 kts | 301° |
| 2026-04-19 15:03 | -9.12359 | 179.88054 | 11412 ft | 260 kts | 301° |
| 2026-04-19 15:04 | -9.11479 | 179.86479 | 11284 ft | 255 kts | 301° |
| 2026-04-19 15:04 | -9.10616 | 179.84934 | 11157 ft | 250 kts | 301° |
| 2026-04-19 15:04 | -9.09773 | 179.83420 | 11031 ft | 245 kts | 301° |
| 2026-04-19 15:04 | -9.08943 | 179.81931 | 10906 ft | 242 kts | 301° |
| 2026-04-19 15:05 | -9.08123 | 179.80466 | 10781 ft | 238 kts | 301° |
| 2026-04-19 15:05 | -9.07310 | 179.79008 | 10655 ft | 235 kts | 301° |
| 2026-04-19 15:05 | -9.06512 | 179.77580 | 10532 ft | 232 kts | 301° |
| 2026-04-19 15:05 | -9.05720 | 179.76160 | 10407 ft | 230 kts | 301° |
| 2026-04-19 15:06 | -9.04937 | 179.74764 | 10284 ft | 228 kts | 301° |
| 2026-04-19 15:06 | -9.04163 | 179.73373 | 10161 ft | 226 kts | 302° |
| 2026-04-19 15:06 | -9.03396 | 179.71999 | 10039 ft | 224 kts | 302° |
| 2026-04-19 15:06 | -9.02632 | 179.70636 | 9917 ft | 222 kts | 301° |
| 2026-04-19 15:07 | -9.01872 | 179.69269 | 9794 ft | 221 kts | 302° |
| 2026-04-19 15:07 | -9.01120 | 179.67927 | 9673 ft | 219 kts | 302° |
| 2026-04-19 15:07 | -9.00375 | 179.66591 | 9552 ft | 218 kts | 302° |
| 2026-04-19 15:07 | -8.99633 | 179.65263 | 9432 ft | 216 kts | 302° |
| 2026-04-19 15:08 | -8.98892 | 179.63940 | 9310 ft | 215 kts | 302° |
| 2026-04-19 15:08 | -8.98159 | 179.62627 | 9187 ft | 214 kts | 302° |
| 2026-04-19 15:08 | -8.97429 | 179.61323 | 9066 ft | 213 kts | 302° |
| 2026-04-19 15:08 | -8.96695 | 179.60005 | 8942 ft | 212 kts | 302° |
| 2026-04-19 15:09 | -8.95970 | 179.58710 | 8820 ft | 211 kts | 302° |
| 2026-04-19 15:09 | -8.95249 | 179.57421 | 8699 ft | 211 kts | 302° |
| 2026-04-19 15:09 | -8.94527 | 179.56137 | 8578 ft | 210 kts | 302° |
| 2026-04-19 15:09 | -8.93812 | 179.54855 | 8458 ft | 209 kts | 302° |
| 2026-04-19 15:10 | -8.93095 | 179.53576 | 8337 ft | 210 kts | 302° |
| 2026-04-19 15:10 | -8.92362 | 179.52270 | 8230 ft | 218 kts | 302° |
| 2026-04-19 15:10 | -8.91600 | 179.50903 | 8125 ft | 226 kts | 301° |
| 2026-04-19 15:10 | -8.90818 | 179.49504 | 8017 ft | 232 kts | 301° |
| 2026-04-19 15:11 | -8.90015 | 179.48066 | 7876 ft | 239 kts | 301° |
| 2026-04-19 15:11 | -8.89186 | 179.46580 | 7700 ft | 247 kts | 301° |
| 2026-04-19 15:11 | -8.88332 | 179.45052 | 7522 ft | 253 kts | 301° |
| 2026-04-19 15:11 | -8.87459 | 179.43490 | 7342 ft | 258 kts | 301° |
| 2026-04-19 15:12 | -8.86568 | 179.41900 | 7160 ft | 262 kts | 301° |
| 2026-04-19 15:12 | -8.85653 | 179.40268 | 6976 ft | 266 kts | 301° |
| 2026-04-19 15:12 | -8.84735 | 179.38627 | 6791 ft | 268 kts | 301° |
| 2026-04-19 15:12 | -8.83812 | 179.36980 | 6605 ft | 270 kts | 301° |
| 2026-04-19 15:13 | -8.82887 | 179.35323 | 6418 ft | 272 kts | 301° |
| 2026-04-19 15:13 | -8.81953 | 179.33661 | 6227 ft | 273 kts | 301° |
| 2026-04-19 15:13 | -8.81020 | 179.31990 | 6033 ft | 274 kts | 301° |
| 2026-04-19 15:13 | -8.80080 | 179.30316 | 5843 ft | 274 kts | 301° |
| 2026-04-19 15:14 | -8.79134 | 179.28628 | 5650 ft | 274 kts | 301° |
| 2026-04-19 15:14 | -8.78200 | 179.26959 | 5462 ft | 269 kts | 301° |
| 2026-04-19 15:14 | -8.77301 | 179.25358 | 5259 ft | 257 kts | 301° |
| 2026-04-19 15:14 | -8.76438 | 179.23818 | 5058 ft | 248 kts | 301° |
| 2026-04-19 15:15 | -8.75606 | 179.22329 | 4854 ft | 240 kts | 301° |
| 2026-04-19 15:15 | -8.74792 | 179.20881 | 4645 ft | 234 kts | 301° |
| 2026-04-19 15:15 | -8.74000 | 179.19471 | 4440 ft | 229 kts | 301° |
| 2026-04-19 15:15 | -8.73220 | 179.18080 | 4232 ft | 224 kts | 301° |
| 2026-04-19 15:16 | -8.72462 | 179.16724 | 4037 ft | 220 kts | 302° |
| 2026-04-19 15:16 | -8.71713 | 179.15394 | 3841 ft | 215 kts | 301° |
| 2026-04-19 15:16 | -8.70986 | 179.14096 | 3630 ft | 209 kts | 303° |
| 2026-04-19 15:16 | -8.70067 | 179.13000 | 3426 ft | 202 kts | 316° |
| 2026-04-19 15:17 | -8.69107 | 179.11978 | 3214 ft | 199 kts | 315° |
| 2026-04-19 15:17 | -8.68167 | 179.10972 | 3093 ft | 195 kts | 315° |
| 2026-04-19 15:17 | -8.67237 | 179.09970 | 2887 ft | 192 kts | 315° |
| 2026-04-19 15:17 | -8.66327 | 179.08995 | 2724 ft | 189 kts | 317° |
| 2026-04-19 15:18 | -8.65205 | 179.08418 | 2623 ft | 180 kts | 359° |
| 2026-04-19 15:18 | -8.64113 | 179.08768 | 2545 ft | 157 kts | 40° |
| 2026-04-19 15:18 | -8.63350 | 179.09455 | 2494 ft | 134 kts | 40° |
| 2026-04-19 15:18 | -8.62708 | 179.10027 | 2458 ft | 117 kts | 41° |
| 2026-04-19 15:19 | -8.62092 | 179.10588 | 2385 ft | 122 kts | 42° |
| 2026-04-19 15:19 | -8.61457 | 179.11177 | 2234 ft | 123 kts | 42° |
| 2026-04-19 15:19 | -8.60822 | 179.11768 | 2080 ft | 124 kts | 43° |
| 2026-04-19 15:19 | -8.60188 | 179.12361 | 1926 ft | 125 kts | 43° |
| 2026-04-19 15:20 | -8.59551 | 179.12959 | 1751 ft | 125 kts | 43° |
| 2026-04-19 15:20 | -8.58917 | 179.13556 | 1597 ft | 124 kts | 42° |
| 2026-04-19 15:20 | -8.58283 | 179.14153 | 1428 ft | 124 kts | 43° |
| 2026-04-19 15:20 | -8.57653 | 179.14746 | 1273 ft | 123 kts | 42° |
| 2026-04-19 15:21 | -8.57022 | 179.15338 | 1112 ft | 123 kts | 43° |
| 2026-04-19 15:21 | -8.56400 | 179.15922 | 947 ft | 122 kts | 43° |
| 2026-04-19 15:21 | -8.55778 | 179.16507 | 788 ft | 121 kts | 42° |
| 2026-04-19 15:21 | -8.55162 | 179.17082 | 618 ft | 122 kts | 43° |
| 2026-04-19 15:22 | -8.54614 | 179.17598 | 483 ft | 125 kts | 42° |
| 2026-04-19 15:22 | -8.53975 | 179.18200 | 309 ft | 125 kts | 43° |
| 2026-04-19 15:22 | -8.53344 | 179.18791 | 149 ft | 123 kts | 44° |
| 2026-04-19 15:22 | -8.52721 | 179.19373 | 11 ft | 120 kts | 42° |
| 2026-04-19 15:23 | -8.52281 | 179.19789 | 10 ft | 44 kts | 42° |
| 2026-04-19 15:23 | -8.52199 | 179.19871 | 7 ft | 0 kts | 48° |
| 2026-04-19 15:23 | -8.52193 | 179.19879 | 7 ft | 2 kts | 68° |
| 2026-04-19 15:23 | -8.52184 | 179.19881 | 6 ft | 3 kts | 239° |
| 2026-04-19 15:24 | -8.52199 | 179.19866 | 6 ft | 3 kts | 217° |
| 2026-04-19 15:24 | -8.52207 | 179.19871 | 6 ft | 4 kts | 49° |
| 2026-04-19 15:24 | -8.52162 | 179.19903 | 5 ft | 11 kts | 37° |
| 2026-04-19 15:24 | -8.52097 | 179.19962 | 4 ft | 13 kts | 42° |
| 2026-04-19 15:25 | -8.52042 | 179.20012 | 4 ft | 13 kts | 42° |
| 2026-04-19 15:25 | -8.51984 | 179.20067 | 6 ft | 10 kts | 51° |
| 2026-04-19 15:25 | -8.51951 | 179.20097 | 6 ft | 4 kts | 269° |
| 2026-04-19 15:25 | -8.51975 | 179.20083 | 6 ft | 4 kts | 241° |
| 2026-04-19 15:26 | -8.51957 | 179.20071 | 6 ft | 4 kts | 349° |
| 2026-04-19 15:26 | -8.51934 | 179.20050 | 7 ft | 5 kts | 272° |
| 2026-04-19 15:26 | -8.51922 | 179.20034 | 7 ft | 2 kts | 39° |
| 2026-04-19 15:26 | -8.51921 | 179.20036 | 8 ft | 0 kts | 74° |
| 2026-04-19 15:54 | -8.51927 | 179.20048 | 7 ft | 7 kts | 133° |
| 2026-04-19 15:54 | -8.51987 | 179.20062 | 6 ft | 12 kts | 214° |
| 2026-04-19 15:54 | -8.52065 | 179.19992 | 4 ft | 17 kts | 224° |
| 2026-04-19 15:54 | -8.52164 | 179.19901 | 5 ft | 20 kts | 221° |
| 2026-04-19 15:55 | -8.52263 | 179.19806 | 8 ft | 19 kts | 223° |
| 2026-04-19 15:55 | -8.52353 | 179.19721 | 9 ft | 17 kts | 223° |
| 2026-04-19 15:55 | -8.52438 | 179.19642 | 9 ft | 17 kts | 224° |
| 2026-04-19 15:55 | -8.52523 | 179.19561 | 8 ft | 17 kts | 223° |
| 2026-04-19 15:56 | -8.52611 | 179.19479 | 8 ft | 18 kts | 225° |
| 2026-04-19 15:56 | -8.52704 | 179.19391 | 8 ft | 18 kts | 223° |
| 2026-04-19 15:56 | -8.52790 | 179.19309 | 10 ft | 16 kts | 224° |
| 2026-04-19 15:56 | -8.52867 | 179.19235 | 10 ft | 13 kts | 234° |
| 2026-04-19 15:57 | -8.52894 | 179.19217 | 9 ft | 6 kts | 28° |
| 2026-04-19 15:57 | -8.52866 | 179.19240 | 10 ft | 5 kts | 42° |
| 2026-04-19 15:57 | -8.52698 | 179.19398 | 8 ft | 69 kts | 43° |
| 2026-04-19 15:57 | -8.52177 | 179.19882 | 6 ft | 132 kts | 43° |
| 2026-04-19 15:58 | -8.51475 | 179.20555 | 386 ft | 139 kts | 43° |
| 2026-04-19 15:58 | -8.50725 | 179.21253 | 774 ft | 157 kts | 43° |
| 2026-04-19 15:58 | -8.49885 | 179.22036 | 1297 ft | 174 kts | 43° |
| 2026-04-19 15:58 | -8.48844 | 179.22750 | 1801 ft | 193 kts | 14° |
| 2026-04-19 15:59 | -8.47501 | 179.22547 | 2332 ft | 207 kts | 328° |
| 2026-04-19 15:59 | -8.46646 | 179.21349 | 2864 ft | 226 kts | 286° |
| 2026-04-19 15:59 | -8.46342 | 179.19747 | 3380 ft | 242 kts | 282° |
| 2026-04-19 15:59 | -8.46026 | 179.18031 | 3877 ft | 258 kts | 282° |
| 2026-04-19 16:00 | -8.45687 | 179.16186 | 4362 ft | 274 kts | 282° |
| 2026-04-19 16:00 | -8.45332 | 179.14256 | 4888 ft | 286 kts | 282° |
| 2026-04-19 16:00 | -8.44981 | 179.12325 | 5979 ft | 274 kts | 282° |
| 2026-04-19 16:00 | -8.44654 | 179.10507 | 6994 ft | 265 kts | 282° |
| 2026-04-19 16:01 | -8.44321 | 179.08650 | 7565 ft | 275 kts | 281° |
| 2026-04-19 16:01 | -8.44062 | 179.06702 | 8168 ft | 283 kts | 288° |
| 2026-04-19 16:01 | -8.43195 | 179.04938 | 8924 ft | 282 kts | 301° |
| 2026-04-19 16:01 | -8.42193 | 179.03227 | 9660 ft | 283 kts | 303° |
| 2026-04-19 16:02 | -8.41140 | 179.01531 | 10332 ft | 288 kts | 304° |
| 2026-04-19 16:02 | -8.40064 | 178.99828 | 10998 ft | 291 kts | 304° |
| 2026-04-19 16:02 | -8.38977 | 178.98099 | 11663 ft | 295 kts | 304° |
| 2026-04-19 16:02 | -8.37867 | 178.96340 | 12338 ft | 298 kts | 304° |
| 2026-04-19 16:03 | -8.36740 | 178.94553 | 12982 ft | 302 kts | 304° |
| 2026-04-19 16:03 | -8.35609 | 178.92762 | 13612 ft | 305 kts | 304° |
| 2026-04-19 16:03 | -8.34451 | 178.90927 | 14242 ft | 308 kts | 304° |
| 2026-04-19 16:03 | -8.33293 | 178.89088 | 14843 ft | 312 kts | 304° |
| 2026-04-19 16:04 | -8.32125 | 178.87241 | 15437 ft | 315 kts | 304° |
| 2026-04-19 16:04 | -8.30935 | 178.85355 | 16014 ft | 318 kts | 304° |
| 2026-04-19 16:04 | -8.29742 | 178.83463 | 16582 ft | 321 kts | 304° |
| 2026-04-19 16:04 | -8.28536 | 178.81553 | 17130 ft | 325 kts | 304° |
| 2026-04-19 16:05 | -8.27322 | 178.79632 | 17664 ft | 328 kts | 304° |
| 2026-04-19 16:05 | -8.26084 | 178.77676 | 18203 ft | 331 kts | 304° |
| 2026-04-19 16:05 | -8.24839 | 178.75710 | 18731 ft | 333 kts | 303° |
| 2026-04-19 16:05 | -8.23592 | 178.73736 | 19240 ft | 336 kts | 303° |
| 2026-04-19 16:06 | -8.22332 | 178.71744 | 19757 ft | 338 kts | 303° |
| 2026-04-19 16:06 | -8.21063 | 178.69735 | 20249 ft | 340 kts | 303° |
| 2026-04-19 16:06 | -8.19789 | 178.67718 | 20726 ft | 342 kts | 303° |
| 2026-04-19 16:06 | -8.18502 | 178.65684 | 21209 ft | 344 kts | 303° |
| 2026-04-19 16:07 | -8.17189 | 178.63604 | 21651 ft | 346 kts | 303° |
| 2026-04-19 16:07 | -8.15886 | 178.61543 | 22069 ft | 349 kts | 303° |
| 2026-04-19 16:07 | -8.14580 | 178.59477 | 22515 ft | 351 kts | 303° |
| 2026-04-19 16:07 | -8.13265 | 178.57395 | 22909 ft | 355 kts | 303° |
| 2026-04-19 16:08 | -8.11936 | 178.55297 | 23307 ft | 358 kts | 303° |
| 2026-04-19 16:08 | -8.10596 | 178.53180 | 23722 ft | 360 kts | 303° |
| 2026-04-19 16:08 | -8.09248 | 178.51049 | 24132 ft | 362 kts | 302° |
| 2026-04-19 16:08 | -8.07872 | 178.48874 | 24516 ft | 365 kts | 303° |
| 2026-04-19 16:09 | -8.06495 | 178.46699 | 24893 ft | 368 kts | 303° |
| 2026-04-19 16:09 | -8.05109 | 178.44510 | 25281 ft | 370 kts | 302° |
| 2026-04-19 16:09 | -8.03702 | 178.42287 | 25675 ft | 372 kts | 302° |
| 2026-04-19 16:09 | -8.02296 | 178.40068 | 26052 ft | 373 kts | 302° |
| 2026-04-19 16:10 | -8.00885 | 178.37838 | 26400 ft | 376 kts | 302° |
| 2026-04-19 16:10 | -7.99475 | 178.35613 | 26774 ft | 377 kts | 302° |
| 2026-04-19 16:10 | -7.98052 | 178.33366 | 27200 ft | 377 kts | 303° |
| 2026-04-19 16:10 | -7.96647 | 178.31148 | 27632 ft | 376 kts | 303° |
| 2026-04-19 16:11 | -7.95244 | 178.28935 | 28024 ft | 376 kts | 303° |
| 2026-04-19 16:11 | -7.93838 | 178.26717 | 28384 ft | 377 kts | 303° |
| 2026-04-19 16:11 | -7.92433 | 178.24501 | 28799 ft | 376 kts | 303° |
| 2026-04-19 16:11 | -7.91031 | 178.22289 | 29222 ft | 375 kts | 303° |
| 2026-04-19 16:12 | -7.89632 | 178.20082 | 29617 ft | 374 kts | 303° |
| 2026-04-19 16:12 | -7.88222 | 178.17859 | 30014 ft | 374 kts | 303° |
| 2026-04-19 16:12 | -7.86826 | 178.15658 | 30411 ft | 373 kts | 303° |
| 2026-04-19 16:12 | -7.85430 | 178.13458 | 30804 ft | 372 kts | 303° |
| 2026-04-19 16:13 | -7.84039 | 178.11266 | 31201 ft | 371 kts | 303° |
| 2026-04-19 16:13 | -7.82654 | 178.09083 | 31586 ft | 370 kts | 303° |
| 2026-04-19 16:13 | -7.81274 | 178.06910 | 31957 ft | 369 kts | 303° |
| 2026-04-19 16:13 | -7.79896 | 178.04739 | 32346 ft | 367 kts | 303° |
| 2026-04-19 16:14 | -7.78515 | 178.02563 | 32721 ft | 366 kts | 303° |
| 2026-04-19 16:14 | -7.77148 | 178.00412 | 33117 ft | 365 kts | 302° |
| 2026-04-19 16:14 | -7.75774 | 177.98249 | 33517 ft | 364 kts | 302° |
| 2026-04-19 16:14 | -7.74402 | 177.96090 | 33892 ft | 363 kts | 302° |
| 2026-04-19 16:15 | -7.73009 | 177.93896 | 34268 ft | 362 kts | 302° |
| 2026-04-19 16:15 | -7.71643 | 177.91746 | 34612 ft | 362 kts | 302° |
| 2026-04-19 16:15 | -7.70276 | 177.89595 | 35006 ft | 361 kts | 302° |
| 2026-04-19 16:15 | -7.68922 | 177.87463 | 35389 ft | 359 kts | 302° |
| 2026-04-19 16:16 | -7.67565 | 177.85330 | 35721 ft | 359 kts | 302° |
| 2026-04-19 16:16 | -7.66211 | 177.83199 | 36007 ft | 360 kts | 302° |
| 2026-04-19 16:16 | -7.64863 | 177.81078 | 36325 ft | 360 kts | 302° |
| 2026-04-19 16:16 | -7.63505 | 177.78944 | 36640 ft | 360 kts | 301° |
| 2026-04-19 16:17 | -7.62160 | 177.76828 | 36920 ft | 360 kts | 301° |
| 2026-04-19 16:17 | -7.59409 | 177.72499 | 36966 ft | 375 kts | 302° |
| 2026-04-19 16:18 | -7.56556 | 177.68017 | 36963 ft | 383 kts | 302° |
| 2026-04-19 16:18 | -7.53668 | 177.63479 | 36962 ft | 388 kts | 302° |
| 2026-04-19 16:19 | -7.50739 | 177.58879 | 36964 ft | 394 kts | 302° |
| 2026-04-19 16:19 | -7.47759 | 177.54198 | 36963 ft | 399 kts | 302° |
| 2026-04-19 16:20 | -7.44748 | 177.49473 | 36964 ft | 403 kts | 302° |
| 2026-04-19 16:20 | -7.41710 | 177.44704 | 36964 ft | 408 kts | 302° |
| 2026-04-19 16:21 | -7.38640 | 177.39889 | 36961 ft | 412 kts | 302° |
| 2026-04-19 16:21 | -7.35528 | 177.35010 | 36961 ft | 415 kts | 302° |
| 2026-04-19 16:22 | -7.32399 | 177.30103 | 36960 ft | 418 kts | 302° |
| 2026-04-19 16:22 | -7.29247 | 177.25162 | 36957 ft | 421 kts | 302° |
| 2026-04-19 16:23 | -7.26066 | 177.20178 | 36963 ft | 424 kts | 302° |
| 2026-04-19 16:23 | -7.22873 | 177.15178 | 36961 ft | 427 kts | 302° |
| 2026-04-19 16:24 | -7.19661 | 177.10147 | 36960 ft | 429 kts | 302° |
| 2026-04-19 16:24 | -7.16429 | 177.05087 | 36961 ft | 431 kts | 302° |
| 2026-04-19 16:25 | -7.13164 | 176.99978 | 36960 ft | 433 kts | 302° |
| 2026-04-19 16:25 | -7.09896 | 176.94867 | 36960 ft | 435 kts | 302° |
| 2026-04-19 16:26 | -7.06611 | 176.89729 | 36960 ft | 436 kts | 302° |
| 2026-04-19 16:26 | -7.03315 | 176.84577 | 36962 ft | 438 kts | 302° |
| 2026-04-19 16:27 | -7.00015 | 176.79418 | 36956 ft | 440 kts | 302° |
| 2026-04-19 16:27 | -6.96704 | 176.74244 | 36945 ft | 441 kts | 302° |
| 2026-04-19 16:28 | -6.93384 | 176.69059 | 36940 ft | 442 kts | 302° |
| 2026-04-19 16:28 | -6.90042 | 176.63839 | 36937 ft | 443 kts | 302° |
| 2026-04-19 16:29 | -6.86703 | 176.58630 | 36940 ft | 444 kts | 302° |
| 2026-04-19 16:29 | -6.83361 | 176.53414 | 36951 ft | 444 kts | 302° |
| 2026-04-19 16:30 | -6.80005 | 176.48178 | 36957 ft | 445 kts | 302° |
| 2026-04-19 16:30 | -6.76655 | 176.42956 | 36955 ft | 445 kts | 302° |
| 2026-04-19 16:31 | -6.73304 | 176.37730 | 36956 ft | 446 kts | 302° |
| 2026-04-19 16:31 | -6.69948 | 176.32498 | 36957 ft | 446 kts | 302° |
| 2026-04-19 16:32 | -6.66574 | 176.27241 | 36959 ft | 446 kts | 302° |
| 2026-04-19 16:32 | -6.63208 | 176.21997 | 36958 ft | 446 kts | 302° |
| 2026-04-19 16:33 | -6.59846 | 176.16761 | 36957 ft | 447 kts | 302° |
| 2026-04-19 16:33 | -6.56420 | 176.11430 | 36959 ft | 447 kts | 302° |
| 2026-04-19 16:34 | -6.53025 | 176.06148 | 36957 ft | 447 kts | 301° |
| 2026-04-19 16:34 | -6.49653 | 176.00899 | 36960 ft | 447 kts | 302° |